Time;durP1;ratioP1;P1;durP2;ratioP2;P2;SDS_P1;SDS_P2;PMS_P1;PMS_P2;Temp;Humidity;BMP_temperature;BMP_pressure;BME280_temperature;BME280_humidity;BME280_pressure;Samples;Min_cycle;Max_cycle;Signal;HPM_P1;HPM_P2
2022/08/27 00:04:54;;;;;;;19.30;3.47;;;;;;;21.82;65.54;99754.19;10374198;28;20587;-73
2022/08/27 00:09:55;;;;;;;15.95;3.15;;;;;;;21.51;65.52;99693.59;10374452;28;20048;-74
2022/08/27 00:14:57;;;;;;;13.93;2.70;;;;;;;21.81;65.57;99741.75;10373795;28;20064;-74
2022/08/27 00:19:58;;;;;;;18.65;2.35;;;;;;;21.96;65.43;99758.09;10373118;28;20064;-74
2022/08/27 00:24:59;;;;;;;14.10;2.60;;;;;;;22.00;65.36;99766.50;10373659;28;20046;-74
2022/08/27 00:30:01;;;;;;;12.38;3.15;;;;;;;21.89;64.92;99755.56;10373721;28;20041;-74
2022/08/27 00:35:02;;;;;;;16.52;2.80;;;;;;;21.65;65.18;99700.22;10373166;28;20490;-73
2022/08/27 00:40:05;;;;;;;13.20;2.80;;;;;;;22.06;65.51;99768.19;10372511;28;20104;-74
2022/08/27 00:45:07;;;;;;;14.90;2.78;;;;;;;21.94;65.26;99762.94;10372970;28;20085;-76
2022/08/27 00:50:13;;;;;;;12.77;2.58;;;;;;;21.86;65.71;99747.16;10373528;28;20095;-74
2022/08/27 00:55:18;;;;;;;12.30;2.40;;;;;;;21.50;65.32;99702.78;10372705;28;20061;-73
2022/08/27 01:00:19;;;;;;;14.98;3.08;;;;;;;21.46;65.29;99718.69;10373258;28;20084;-73
2022/08/27 01:05:24;;;;;;;12.20;2.70;;;;;;;21.81;65.82;99795.81;10371339;28;20092;-73
2022/08/27 01:10:27;;;;;;;14.15;2.42;;;;;;;21.76;65.56;99806.56;10372477;28;20896;-74
2022/08/27 01:15:29;;;;;;;13.50;3.47;;;;;;;21.71;65.62;99801.91;10372249;28;20049;-73
2022/08/27 01:20:39;;;;;;;11.90;2.88;;;;;;;21.65;66.32;99819.16;10371423;28;20509;-74
2022/08/27 01:25:43;;;;;;;21.33;2.88;;;;;;;21.55;66.27;99809.06;10372345;28;20095;-73
2022/08/27 01:30:44;;;;;;;20.73;3.63;;;;;;;21.65;65.45;99808.34;10371876;28;20498;-74
2022/08/27 01:35:48;;;;;;;9.38;2.45;;;;;;;21.64;65.91;99807.53;10371900;28;20052;-74
2022/08/27 01:40:49;;;;;;;24.00;3.15;;;;;;;21.64;65.53;99812.13;10371912;28;20048;-73
2022/08/27 01:45:51;;;;;;;20.10;2.55;;;;;;;21.67;65.59;99821.59;10370994;28;20105;-73
2022/08/27 01:50:52;;;;;;;11.00;2.50;;;;;;;21.72;65.34;99803.56;10371890;28;20038;-73
2022/08/27 01:55:53;;;;;;;37.88;3.85;;;;;;;21.76;65.46;99815.50;10378839;28;20062;-74
2022/08/27 02:01:04;;;;;;;21.42;2.60;;;;;;;21.73;65.69;99816.00;10378500;28;20128;-74
2022/08/27 02:06:08;;;;;;;22.75;3.10;;;;;;;21.45;65.51;99787.31;10378935;28;20042;-74
2022/08/27 02:11:09;;;;;;;18.50;2.83;;;;;;;21.89;65.11;99858.34;10378837;28;20034;-74
2022/08/27 02:16:10;;;;;;;19.17;2.70;;;;;;;21.96;65.06;99854.63;10378747;28;20144;-74
2022/08/27 02:21:11;;;;;;;13.05;3.03;;;;;;;22.02;64.84;99865.25;10378297;28;20129;-74
2022/08/27 02:26:12;;;;;;;18.30;2.60;;;;;;;21.65;65.17;99805.63;10378125;28;20042;-73
2022/08/27 02:31:14;;;;;;;13.60;2.88;;;;;;;21.85;64.67;99830.19;10377863;28;20042;-74
2022/08/27 02:36:15;;;;;;;28.23;3.10;;;;;;;22.14;64.60;99881.31;10378230;28;20490;-73
2022/08/27 02:41:17;;;;;;;17.08;3.05;;;;;;;22.23;64.37;99884.41;10377463;28;20042;-73
2022/08/27 02:46:17;;;;;;;29.05;4.28;;;;;;;22.25;64.21;99888.47;10376776;28;20041;-73
2022/08/27 02:51:18;;;;;;;14.10;2.58;;;;;;;21.84;63.94;99814.22;10377116;28;20172;-73
2022/08/27 02:56:19;;;;;;;23.98;3.72;;;;;;;22.27;63.90;99867.41;10377170;28;20064;-74
2022/08/27 03:01:20;;;;;;;22.38;2.97;;;;;;;22.31;63.91;99871.22;10376729;28;20053;-74
2022/08/27 03:06:21;;;;;;;26.98;3.95;;;;;;;22.46;63.74;99883.25;10375316;28;20064;-73
2022/08/27 03:11:22;;;;;;;18.58;2.85;;;;;;;22.51;63.63;99880.59;10376219;28;20042;-73
2022/08/27 03:16:25;;;;;;;13.23;2.47;;;;;;;22.64;63.24;99901.81;10376292;28;20042;-73
2022/08/27 03:21:25;;;;;;;61.53;38.70;;;;;;;22.68;63.13;99884.00;10375701;28;20038;-74
2022/08/27 03:26:30;;;;;;;37.42;14.07;;;;;;;22.77;63.06;99895.16;10375790;28;20478;-74
2022/08/27 03:31:31;;;;;;;36.63;11.73;;;;;;;22.83;62.61;99888.72;10375546;28;20438;-74
2022/08/27 03:36:32;;;;;;;31.83;7.10;;;;;;;22.77;62.56;99874.31;10375330;28;20073;-73
2022/08/27 03:41:33;;;;;;;23.10;3.92;;;;;;;22.54;62.44;99821.34;10375019;28;20046;-73
2022/08/27 03:46:34;;;;;;;46.63;3.53;;;;;;;22.92;62.60;99870.91;10374296;28;20444;-73
2022/08/27 03:51:36;;;;;;;17.88;3.60;;;;;;;23.18;62.01;99893.56;10374711;28;20038;-72
2022/08/27 03:56:38;;;;;;;23.05;3.13;;;;;;;23.40;61.68;99882.56;10373994;28;20112;-75
2022/08/27 04:01:39;;;;;;;15.75;3.90;;;;;;;23.80;60.71;99880.31;10373961;28;20065;-73
2022/08/27 04:06:40;;;;;;;49.53;4.97;;;;;;;24.50;59.01;99864.41;10375062;28;20533;-75
2022/08/27 04:11:41;;;;;;;15.63;2.88;;;;;;;25.40;56.95;99866.47;10373569;28;20416;-73
2022/08/27 04:16:42;;;;;;;26.25;4.18;;;;;;;26.22;55.17;99861.41;10373672;28;20690;-76
2022/08/27 04:21:43;;;;;;;14.60;4.28;;;;;;;26.72;53.91;99880.38;10373313;28;20048;-74
2022/08/27 04:26:46;;;;;;;16.08;4.80;;;;;;;26.78;53.02;99892.84;10373846;28;20049;-73
2022/08/27 04:31:47;;;;;;;15.07;3.42;;;;;;;26.99;52.79;99879.84;10373327;28;20042;-72
2022/08/27 04:36:49;;;;;;;17.50;3.47;;;;;;;27.34;52.18;99883.28;10373156;28;20050;-73
2022/08/27 04:41:51;;;;;;;26.60;3.47;;;;;;;27.67;51.09;99897.91;10373186;28;20434;-73
2022/08/27 04:46:57;;;;;;;25.55;4.20;;;;;;;27.98;50.11;99910.06;10372677;28;20117;-73
2022/08/27 04:51:58;;;;;;;23.92;3.92;;;;;;;28.04;49.36;99888.16;10373154;28;20429;-73
2022/08/27 04:57:01;;;;;;;21.10;3.67;;;;;;;27.78;49.55;99888.50;10372632;28;20064;-74
2022/08/27 05:02:04;;;;;;;15.13;3.03;;;;;;;27.34;49.96;99880.56;10373184;28;20576;-76
2022/08/27 05:07:07;;;;;;;13.40;2.80;;;;;;;26.62;50.69;99832.22;10371980;28;20034;-77
2022/08/27 05:12:08;;;;;;;12.43;2.88;;;;;;;26.35;51.72;99836.25;10373181;28;20048;-71
2022/08/27 05:17:09;;;;;;;22.05;3.58;;;;;;;26.60;51.50;99891.66;10372612;28;20042;-77
2022/08/27 05:22:10;;;;;;;12.85;3.10;;;;;;;26.39;51.36;99837.31;10372217;28;20161;-74
2022/08/27 05:27:11;;;;;;;16.98;3.25;;;;;;;27.26;50.47;99909.31;10375260;28;20572;-76
2022/08/27 05:32:12;;;;;;;31.55;4.40;;;;;;;27.65;50.05;99903.66;10379482;28;20034;-75
2022/08/27 05:37:13;;;;;;;15.77;3.30;;;;;;;27.49;49.23;99829.38;10378971;28;20073;-78
2022/08/27 05:42:13;;;;;;;71.15;5.35;;;;;;;28.03;48.51;99878.34;10380287;28;20052;-74
2022/08/27 05:47:14;;;;;;;25.33;3.75;;;;;;;27.85;48.85;99877.22;10378436;28;20038;-74
2022/08/27 05:52:15;;;;;;;23.45;2.95;;;;;;;28.38;47.56;99891.44;10378973;28;20053;-75
2022/08/27 05:57:16;;;;;;;19.13;3.33;;;;;;;27.81;47.75;99777.94;10379825;28;20060;-74
2022/08/27 06:02:19;;;;;;;13.93;2.78;;;;;;;28.14;47.87;99891.53;10378922;28;20045;-74
2022/08/27 06:07:19;;;;;;;;;;;;;;;28.32;46.64;99894.56;10379407;28;20045;-75
2022/08/27 06:12:20;;;;;;;41.78;4.40;;;;;;;27.89;47.82;99900.13;10377905;28;20292;-71
2022/08/27 06:17:21;;;;;;;30.58;4.55;;;;;;;27.55;47.98;99873.75;10377994;28;20041;-77
2022/08/27 06:22:22;;;;;;;20.45;2.80;;;;;;;27.47;47.32;99898.97;10378268;28;20042;-73
2022/08/27 06:27:23;;;;;;;28.17;4.05;;;;;;;27.45;47.29;99893.00;10378659;28;20490;-73
2022/08/27 06:32:24;;;;;;;26.45;4.22;;;;;;;27.65;46.76;99873.66;10377166;28;20045;-74
2022/08/27 06:37:26;;;;;;;28.83;3.83;;;;;;;28.03;45.89;99884.63;10376401;28;20132;-75
2022/08/27 06:42:26;;;;;;;19.98;3.40;;;;;;;28.70;44.72;99880.88;10392490;28;20065;-77
2022/08/27 06:47:30;;;;;;;19.85;3.72;;;;;;;29.08;43.60;99903.47;10377279;28;20041;-73
2022/08/27 06:52:31;;;;;;;27.98;4.32;;;;;;;28.99;42.98;99895.09;10376545;28;20077;-74
2022/08/27 06:57:32;;;;;;;22.60;3.78;;;;;;;28.60;43.14;99893.59;10376183;28;20096;-78
2022/08/27 07:02:33;;;;;;;33.38;4.38;;;;;;;28.13;43.21;99834.50;10376230;28;20073;-74
2022/08/27 07:07:33;;;;;;;37.67;4.53;;;;;;;28.26;42.71;99844.66;10376550;28;20042;-74
2022/08/27 07:12:34;;;;;;;28.02;3.78;;;;;;;28.60;42.02;99882.66;10376963;28;20505;-73
2022/08/27 07:17:35;;;;;;;33.65;4.30;;;;;;;27.86;40.94;99759.56;10376472;28;20046;-74
2022/08/27 07:22:39;;;;;;;21.42;4.45;;;;;;;28.68;39.57;99890.16;10376658;28;20038;-72
2022/08/27 07:27:40;;;;;;;32.20;4.55;;;;;;;29.07;39.36;99858.06;10376287;28;20132;-74
2022/08/27 07:32:42;;;;;;;23.33;4.05;;;;;;;30.10;38.79;99873.97;10374736;28;20040;-71
2022/08/27 07:37:43;;;;;;;44.00;5.22;;;;;;;30.56;37.44;99855.63;10375416;28;21027;-74
2022/08/27 07:48:03;;;;;;;35.33;4.32;;;;;;;31.73;36.13;99871.59;10374525;28;20132;-75
2022/08/27 07:53:06;;;;;;;27.83;4.05;;;;;;;31.94;35.17;99866.31;10375110;28;20049;-78
2022/08/27 07:58:07;;;;;;;34.13;3.92;;;;;;;32.12;33.67;99856.13;10373965;28;20096;-75
2022/08/27 08:03:08;;;;;;;45.15;5.25;;;;;;;32.38;32.62;99849.81;10374503;28;20084;-75
2022/08/27 08:08:10;;;;;;;29.10;4.80;;;;;;;32.68;32.18;99851.56;10374406;28;20049;-73
2022/08/27 08:13:11;;;;;;;30.77;4.05;;;;;;;32.71;31.04;99855.59;10373988;28;20030;-70
2022/08/27 08:18:13;;;;;;;30.20;4.53;;;;;;;32.83;31.00;99847.47;10374586;28;20414;-77
2022/08/27 08:23:14;;;;;;;42.73;6.53;;;;;;;32.98;30.15;99832.38;10373254;28;20501;-77
2022/08/27 08:28:14;;;;;;;37.97;5.63;;;;;;;32.94;29.54;99807.44;10373520;28;20038;-73
2022/08/27 08:33:16;;;;;;;28.17;4.35;;;;;;;33.24;29.64;99820.44;10373617;28;20136;-73
2022/08/27 08:38:19;;;;;;;45.30;5.65;;;;;;;33.26;29.27;99818.16;10373683;28;20117;-74
2022/08/27 08:43:34;;;;;;;54.83;6.22;;;;;;;33.62;27.77;99812.09;10372994;28;20053;-73
2022/08/27 08:48:41;;;;;;;34.78;5.13;;;;;;;33.66;27.25;99806.75;10372792;28;20555;-76
2022/08/27 08:53:54;;;;;;;36.65;5.35;;;;;;;33.41;26.32;99737.72;10371964;28;20046;-73
2022/08/27 08:59:01;;;;;;;38.60;5.47;;;;;;;34.09;26.07;99804.44;10372575;28;20038;-76
2022/08/27 09:04:07;;;;;;;43.92;6.25;;;;;;;34.31;24.80;99802.44;10372155;28;20176;-74
2022/08/27 09:09:31;;;;;;;38.30;6.68;;;;;;;34.53;22.95;99804.81;10371792;28;20030;-79
2022/08/27 09:14:40;;;;;;;44.97;6.03;;;;;;;34.65;23.30;99800.50;10368587;28;20057;-74
2022/08/27 09:19:41;;;;;;;36.45;6.35;;;;;;;34.77;23.69;99795.00;10372282;28;20092;-75
2022/08/27 09:24:54;;;;;;;44.03;5.70;;;;;;;34.36;22.39;99736.06;10371940;28;20042;-79
2022/08/27 09:29:56;;;;;;;40.60;5.80;;;;;;;34.95;22.99;99793.59;10371780;28;20128;-75
2022/08/27 09:34:59;;;;;;;161.93;12.88;;;;;;;35.11;22.44;99790.19;10372080;28;20045;-76
2022/08/27 09:40:26;;;;;;;59.15;6.53;;;;;;;35.10;21.44;99785.81;10371905;28;20260;-76
2022/08/27 09:45:28;;;;;;;48.65;6.72;;;;;;;35.15;21.86;99782.81;10362751;28;20132;-72
2022/08/27 09:50:53;;;;;;;56.03;7.75;;;;;;;35.41;21.77;99788.75;10371140;28;20469;-77
2022/08/27 09:55:57;;;;;;;55.65;6.55;;;;;;;35.26;21.40;99753.56;10371670;28;20581;-74
2022/08/27 10:01:05;;;;;;;60.75;7.22;;;;;;;35.38;21.24;99761.03;10370741;28;20046;-74
2022/08/27 10:06:07;;;;;;;51.00;6.70;;;;;;;35.31;21.22;99774.63;10370819;28;20091;-75
2022/08/27 10:11:27;;;;;;;78.32;8.73;;;;;;;35.39;21.35;99735.84;10385970;28;20413;-74
2022/08/27 10:16:47;;;;;;;44.53;6.68;;;;;;;35.63;21.41;99757.09;10377537;28;20494;-73
2022/08/27 10:22:15;;;;;;;76.72;7.45;;;;;;;35.33;21.08;99698.56;10377319;28;20050;-79
2022/08/27 10:27:31;;;;;;;67.80;9.27;;;;;;;35.38;21.21;99714.06;10377677;28;20041;-75
2022/08/27 10:32:51;;;;;;;67.90;7.97;;;;;;;35.79;21.33;99765.41;10377312;28;20100;-76
2022/08/27 10:38:10;;;;;;;65.13;7.80;;;;;;;35.91;21.29;99761.81;10377657;28;20049;-80
2022/08/27 10:43:48;;;;;;;59.00;7.55;;;;;;;36.14;21.05;99766.75;10377650;28;20034;-73
2022/08/27 10:49:03;;;;;;;66.50;8.38;;;;;;;35.88;21.30;99777.13;10377493;28;20042;-72
2022/08/27 10:54:30;;;;;;;65.80;8.85;;;;;;;35.86;20.99;99762.84;10376733;28;20089;-74
2022/08/27 11:00:12;;;;;;;76.90;10.65;;;;;;;36.07;21.17;99764.63;10376421;28;20038;-76
2022/08/27 11:05:35;;;;;;;61.50;9.30;;;;;;;36.18;21.82;99765.72;10383991;28;20064;-76
2022/08/27 11:10:42;;;;;;;51.05;8.43;;;;;;;35.92;20.81;99762.59;10375874;28;20046;-74
2022/08/27 11:15:46;;;;;;;76.88;9.82;;;;;;;35.61;20.86;99709.66;10376438;28;20546;-74
2022/08/27 11:20:56;;;;;;;54.45;8.75;;;;;;;36.00;20.71;99779.03;10376134;28;20038;-80
2022/08/27 11:26:05;;;;;;;76.55;9.60;;;;;;;35.49;21.33;99706.13;10375598;28;20041;-75
2022/08/27 11:31:18;;;;;;;61.60;9.57;;;;;;;35.75;20.76;99741.59;10391085;28;20084;-73
2022/08/27 11:36:32;;;;;;;62.67;9.88;;;;;;;35.84;21.38;99784.53;10375542;28;20042;-74
2022/08/27 11:42:02;;;;;;;68.05;11.02;;;;;;;35.66;21.09;99763.88;10390815;28;20030;-71
2022/08/27 11:47:12;;;;;;;62.45;9.20;;;;;;;35.53;20.88;99784.34;10375727;28;20408;-77
2022/08/27 11:52:23;;;;;;;66.40;9.18;;;;;;;35.40;20.68;99798.19;10375496;28;20057;-76
2022/08/27 11:57:26;;;;;;;62.60;9.40;;;;;;;35.48;20.98;99814.97;10374042;28;20058;-76
2022/08/27 12:02:28;;;;;;;72.78;9.00;;;;;;;35.37;20.87;99800.84;10375505;28;20140;-76
2022/08/27 12:07:34;;;;;;;55.58;9.90;;;;;;;35.36;20.92;99822.16;10374401;28;20146;-77
2022/08/27 12:12:42;;;;;;;76.97;10.70;;;;;;;34.87;21.02;99802.78;10373654;28;20045;-78
2022/08/27 12:18:13;;;;;;;63.38;9.38;;;;;;;34.65;21.14;99831.63;10373304;28;20460;-77
2022/08/27 12:23:41;;;;;;;57.17;9.65;;;;;;;34.40;20.52;99800.41;10371958;28;20056;-76
2022/08/27 12:28:42;;;;;;;79.00;9.80;;;;;;;34.67;21.04;99848.66;10374554;28;20053;-78
2022/08/27 12:33:50;;;;;;;69.55;11.85;;;;;;;34.78;21.00;99824.19;10371997;28;20037;-75
2022/08/27 12:38:58;;;;;;;60.83;10.27;;;;;;;35.12;20.61;99825.72;10372643;28;20057;-78
2022/08/27 12:44:08;;;;;;;79.10;11.40;;;;;;;34.98;20.37;99834.31;10372597;28;20049;-73
2022/08/27 12:49:09;;;;;;;67.97;10.43;;;;;;;34.70;20.48;99825.06;10372828;28;20045;-76
2022/08/27 12:54:28;;;;;;;63.75;10.50;;;;;;;34.47;20.51;99832.94;10373560;28;20065;-76
2022/08/27 12:59:44;;;;;;;60.20;10.55;;;;;;;34.34;20.63;99823.03;10372886;28;20049;-77
2022/08/27 13:04:47;;;;;;;71.70;10.73;;;;;;;34.34;20.92;99818.31;10372515;28;20425;-74
2022/08/27 13:09:48;;;;;;;68.78;10.77;;;;;;;34.28;21.37;99792.09;10372225;28;20565;-78
2022/08/27 13:14:49;;;;;;;70.78;10.85;;;;;;;34.27;21.32;99821.63;10371629;28;20054;-78
2022/08/27 13:19:58;;;;;;;78.95;11.85;;;;;;;34.07;21.12;99827.97;10372300;28;20042;-75
2022/08/27 13:24:59;;;;;;;86.95;11.63;;;;;;;33.94;20.74;99857.41;10371572;28;20038;-76
2022/08/27 13:30:06;;;;;;;78.13;11.30;;;;;;;33.79;20.58;99849.75;10372368;28;20046;-71
2022/08/27 13:35:07;;;;;;;71.70;10.60;;;;;;;33.49;21.54;99824.97;10372511;28;20037;-74
2022/08/27 13:40:09;;;;;;;73.45;11.55;;;;;;;33.64;21.12;99851.16;10371936;28;20048;-77
2022/08/27 13:45:11;;;;;;;90.60;13.40;;;;;;;33.59;20.87;99837.56;10371897;28;20066;-73
2022/08/27 13:50:24;;;;;;;99.15;13.82;;;;;;;33.53;20.08;99836.16;10378178;28;20049;-74
2022/08/27 13:55:26;;;;;;;104.47;13.52;;;;;;;33.25;19.46;99847.63;10379341;28;20096;-75
2022/08/27 14:00:30;;;;;;;;;;;;;;;33.31;19.73;99848.25;10379557;28;20045;-76
2022/08/27 14:05:32;;;;;;;109.85;14.63;;;;;;;33.03;19.86;99840.47;10379230;28;20339;-76
2022/08/27 14:10:38;;;;;;;89.40;12.10;;;;;;;32.53;20.24;99763.28;10378992;28;20448;-72
2022/08/27 14:15:59;;;;;;;93.72;12.77;;;;;;;32.86;20.06;99824.00;10378030;28;20048;-75
2022/08/27 14:21:02;;;;;;;91.88;12.38;;;;;;;32.36;20.50;99753.94;10377514;28;20535;-78
2022/08/27 14:26:03;;;;;;;80.70;11.57;;;;;;;32.69;20.25;99806.41;10378312;28;20547;-71
2022/08/27 14:31:04;;;;;;;85.10;12.07;;;;;;;32.55;20.24;99789.34;10377918;28;20192;-75
2022/08/27 14:36:06;;;;;;;121.63;14.02;;;;;;;31.96;20.06;99709.44;10393371;28;20048;-76
2022/08/27 14:41:08;;;;;;;97.10;12.73;;;;;;;32.30;20.24;99788.22;10377595;28;20140;-74
2022/08/27 14:46:21;;;;;;;71.78;9.38;;;;;;;32.19;19.66;99786.94;10377060;28;20498;-81
2022/08/27 14:51:31;;;;;;;73.32;10.63;;;;;;;31.98;20.05;99773.06;10392668;28;20041;-81
2022/08/27 14:56:32;;;;;;;73.82;12.02;;;;;;;31.24;20.42;99654.06;10376311;28;20064;-79
2022/08/27 15:01:36;;;;;;;59.33;8.95;;;;;;;31.89;20.23;99744.78;10376616;28;20128;-72
2022/08/27 15:06:37;;;;;;;49.17;7.93;;;;;;;31.34;20.33;99675.69;10376487;28;20148;-74
2022/08/27 15:11:40;;;;;;;68.07;9.25;;;;;;;31.68;20.56;99723.50;10377035;28;20395;-74
2022/08/27 15:16:42;;;;;;;52.65;7.78;;;;;;;31.21;21.32;99714.25;10376504;28;20045;-80
2022/08/27 15:21:46;;;;;;;55.47;7.87;;;;;;;31.45;21.98;99796.16;10375687;28;20065;-74
2022/08/27 15:26:48;;;;;;;48.70;6.65;;;;;;;31.29;22.29;99787.53;10375690;28;20124;-73
2022/08/27 15:31:49;;;;;;;44.23;7.07;;;;;;;31.08;22.53;99779.91;10376455;28;20057;-70
2022/08/27 15:36:50;;;;;;;37.00;5.88;;;;;;;30.88;23.42;99775.81;10373708;28;20042;-74
2022/08/27 15:41:51;;;;;;;62.22;7.35;;;;;;;30.85;23.63;99822.28;10375746;28;20038;-72
2022/08/27 15:46:51;;;;;;;45.47;6.47;;;;;;;30.73;23.90;99882.34;10375701;28;20535;-78
2022/08/27 15:51:54;;;;;;;42.70;5.85;;;;;;;30.51;24.25;99877.66;10375470;28;20070;-77
2022/08/27 15:56:54;;;;;;;41.67;6.63;;;;;;;30.39;24.62;99884.50;10375087;28;20066;-76
2022/08/27 16:01:56;;;;;;;45.90;6.22;;;;;;;29.87;24.85;99818.34;10373952;28;20046;-76
2022/08/27 16:06:56;;;;;;;36.38;5.97;;;;;;;30.08;25.34;99913.75;10373905;28;20038;-75
2022/08/27 16:11:57;;;;;;;48.45;5.55;;;;;;;29.55;25.21;99874.84;10373516;28;20041;-76
2022/08/27 16:16:59;;;;;;;34.85;4.93;;;;;;;29.74;25.51;99936.94;10373394;28;20042;-76
2022/08/27 16:21:59;;;;;;;32.67;5.18;;;;;;;29.41;25.94;99920.59;10373344;28;20068;-76
2022/08/27 16:27:00;;;;;;;39.17;6.18;;;;;;;29.44;26.47;99930.94;10373113;28;20034;-77
2022/08/27 16:32:02;;;;;;;38.60;5.55;;;;;;;29.21;26.79;99913.59;10373749;28;20124;-77
2022/08/27 16:37:02;;;;;;;48.25;6.53;;;;;;;28.75;27.25;99859.72;10373331;28;20046;-77
2022/08/27 16:42:03;;;;;;;44.53;6.25;;;;;;;28.89;27.32;99887.88;10372578;28;20048;-78
2022/08/27 16:47:05;;;;;;;42.45;6.65;;;;;;;28.87;27.94;99935.78;10373759;28;20041;-77
2022/08/27 16:52:07;;;;;;;64.38;9.45;;;;;;;28.42;30.58;99881.59;10372960;28;20113;-77
2022/08/27 16:57:07;;;;;;;50.53;9.88;;;;;;;27.96;32.31;99838.56;10373398;28;20093;-76
2022/08/27 17:02:25;;;;;;;62.78;8.57;;;;;;;28.37;35.58;99939.00;10372065;28;20072;-76
2022/08/27 17:07:26;;;;;;;53.15;7.63;;;;;;;28.28;35.35;99965.38;10372386;28;20533;-76
2022/08/27 17:12:26;;;;;;;33.28;5.18;;;;;;;28.13;37.33;99955.47;10372588;28;20125;-75
2022/08/27 17:17:28;;;;;;;18.45;4.05;;;;;;;27.92;38.64;99968.56;10372904;28;20068;-77
2022/08/27 17:22:29;;;;;;;28.98;3.78;;;;;;;27.74;39.78;99958.41;10374709;28;20084;-78
2022/08/27 17:27:30;;;;;;;21.75;3.95;;;;;;;27.59;40.90;99978.50;10380593;28;20042;-77
2022/08/27 17:32:36;;;;;;;21.08;4.00;;;;;;;27.44;43.08;99965.03;10380347;28;20045;-76
2022/08/27 17:37:37;;;;;;;31.33;3.90;;;;;;;26.92;42.91;99904.69;10394871;28;20053;-75
2022/08/27 17:42:38;;;;;;;43.55;4.75;;;;;;;27.04;43.95;99948.75;10380664;28;20398;-82
2022/08/27 17:47:39;;;;;;;41.10;5.10;;;;;;;26.65;44.92;99899.75;10395613;28;20033;-76
2022/08/27 17:52:40;;;;;;;48.75;5.13;;;;;;;26.79;45.39;99938.06;10378277;28;20421;-78
2022/08/27 17:57:41;;;;;;;38.95;5.22;;;;;;;26.55;45.94;99927.91;10378693;28;20053;-78
2022/08/27 18:02:45;;;;;;;34.85;5.10;;;;;;;26.47;47.00;99936.66;10379750;28;20509;-78
2022/08/27 18:07:46;;;;;;;36.63;4.78;;;;;;;26.35;46.87;99942.44;10378314;28;20379;-77
2022/08/27 18:12:47;;;;;;;46.08;5.85;;;;;;;26.09;47.56;99943.72;10378930;28;20084;-78
2022/08/27 18:17:49;;;;;;;36.63;6.22;;;;;;;26.10;47.79;99964.41;10378610;28;20041;-81
2022/08/27 18:22:50;;;;;;;42.97;6.18;;;;;;;25.93;48.40;99948.41;10377962;28;20038;-81
2022/08/27 18:27:55;;;;;;;49.00;6.47;;;;;;;25.89;49.33;99966.41;10378374;28;20045;-78
2022/08/27 18:32:56;;;;;;;38.75;4.80;;;;;;;25.76;49.10;99970.50;10377119;28;20042;-81
2022/08/27 18:37:57;;;;;;;35.85;5.32;;;;;;;25.40;49.40;99923.56;10376907;28;20509;-81
2022/08/27 18:42:58;;;;;;;38.58;6.28;;;;;;;25.55;49.80;99952.59;10377644;28;20065;-79
2022/08/27 18:48:01;;;;;;;35.58;4.50;;;;;;;25.37;49.72;99929.53;10392187;28;20045;-78
2022/08/27 18:53:02;;;;;;;28.50;4.30;;;;;;;25.44;49.92;99951.84;10377630;28;20448;-78
2022/08/27 18:58:03;;;;;;;32.25;5.32;;;;;;;25.34;50.16;99941.81;10376236;28;20390;-79
2022/08/27 19:03:04;;;;;;;34.53;4.60;;;;;;;25.28;50.38;99937.47;10376400;28;20104;-77
2022/08/27 19:08:05;;;;;;;34.35;4.75;;;;;;;24.77;50.81;99859.53;10376169;28;20100;-81
2022/08/27 19:13:06;;;;;;;24.15;4.20;;;;;;;25.05;50.46;99923.34;10376749;28;20085;-77
2022/08/27 19:18:08;;;;;;;29.83;4.63;;;;;;;24.51;50.76;99838.91;10375974;28;20049;-79
2022/08/27 19:23:09;;;;;;;20.85;3.40;;;;;;;24.93;50.90;99914.66;10376777;28;20045;-79
2022/08/27 19:28:09;;;;;;;20.55;3.28;;;;;;;24.82;50.87;99902.97;10375366;28;20497;-76
2022/08/27 19:33:11;;;;;;;80.05;4.97;;;;;;;24.86;51.11;99929.59;10375186;28;20044;-75
2022/08/27 19:38:13;;;;;;;16.83;2.78;;;;;;;24.85;51.34;99920.63;10375838;28;20515;-79
2022/08/27 19:43:13;;;;;;;15.63;2.45;;;;;;;24.86;51.21;99918.72;10374640;28;20037;-77
2022/08/27 19:48:15;;;;;;;23.77;3.10;;;;;;;24.71;51.14;99905.97;10374374;28;20124;-73
2022/08/27 19:53:16;;;;;;;11.70;2.58;;;;;;;24.72;51.14;99929.34;10375616;28;20407;-76
2022/08/27 19:58:18;;;;;;;13.40;2.70;;;;;;;24.64;51.67;99927.16;10375315;28;20069;-77
2022/08/27 20:03:19;;;;;;;12.50;2.55;;;;;;;24.57;51.18;99933.69;10389357;28;20038;-78
2022/08/27 20:08:20;;;;;;;15.18;2.40;;;;;;;23.88;51.26;99839.91;10374464;28;20421;-82
2022/08/27 20:13:21;;;;;;;11.13;2.63;;;;;;;24.38;51.57;99940.69;10374326;28;20045;-77
2022/08/27 20:18:22;;;;;;;11.05;2.67;;;;;;;24.04;51.32;99886.88;10374672;28;20397;-76
2022/08/27 20:23:23;;;;;;;11.20;2.55;;;;;;;23.96;51.32;99884.72;10372828;28;20120;-75
2022/08/27 20:28:24;;;;;;;18.15;3.25;;;;;;;23.64;51.34;99850.41;10373688;28;20038;-76
2022/08/27 20:33:25;;;;;;;20.42;2.95;;;;;;;23.74;51.41;99875.94;10389173;28;20052;-76
2022/08/27 20:38:26;;;;;;;14.95;3.00;;;;;;;24.04;51.72;99927.56;10374040;28;20093;-76
2022/08/27 20:43:27;;;;;;;10.43;2.65;;;;;;;23.73;51.75;99885.19;10373421;28;20291;-77
2022/08/27 20:48:28;;;;;;;14.05;2.53;;;;;;;23.87;51.58;99916.13;10373140;28;20045;-77
2022/08/27 20:53:29;;;;;;;8.80;2.45;;;;;;;23.84;51.68;99924.78;10372907;28;20496;-82
2022/08/27 21:03:50;;;;;;;17.27;2.70;;;;;;;23.69;51.86;99918.25;10372159;28;20084;-77
2022/08/27 21:08:50;;;;;;;9.40;2.42;;;;;;;23.49;51.85;99898.34;10372959;28;20038;-76
2022/08/27 21:13:51;;;;;;;11.65;2.75;;;;;;;23.54;51.76;99920.84;10372488;28;20049;-77
2022/08/27 21:18:52;;;;;;;11.80;3.17;;;;;;;23.32;51.69;99890.38;10371717;28;20041;-76
2022/08/27 21:23:53;;;;;;;13.02;3.30;;;;;;;23.39;51.62;99913.47;10372246;28;20050;-76
2022/08/27 21:28:54;;;;;;;13.32;2.88;;;;;;;23.30;51.81;99906.91;10372424;28;20486;-77
2022/08/27 21:33:55;;;;;;;19.38;2.97;;;;;;;23.22;51.80;99899.28;10372453;28;20440;-76
2022/08/27 21:38:56;;;;;;;16.30;3.85;;;;;;;23.02;51.88;99886.41;10371981;28;20089;-77
2022/08/27 21:43:57;;;;;;;17.10;2.83;;;;;;;22.64;52.17;99834.13;10371400;28;20034;-74
2022/08/27 21:48:58;;;;;;;15.05;2.28;;;;;;;22.54;52.32;99826.75;10371209;28;20107;-80
2022/08/27 21:53:59;;;;;;;11.63;2.38;;;;;;;22.92;52.63;99894.47;10371882;28;20501;-76
2022/08/27 21:58:59;;;;;;;19.27;3.33;;;;;;;22.84;52.63;99884.09;10372277;28;20062;-76
2022/08/27 22:04:00;;;;;;;11.77;2.50;;;;;;;22.70;52.66;99883.72;10370967;28;20058;-76
2022/08/27 22:09:01;;;;;;;17.10;2.63;;;;;;;22.84;52.71;99903.06;10373710;28;20033;-78
2022/08/27 22:14:02;;;;;;;18.60;2.90;;;;;;;22.85;52.65;99913.63;10378950;28;20038;-76
2022/08/27 22:19:03;;;;;;;18.05;3.13;;;;;;;22.58;52.71;99872.25;10378732;28;20129;-76
2022/08/27 22:24:04;;;;;;;16.35;2.95;;;;;;;22.81;52.90;99917.94;10379077;28;20111;-74
2022/08/27 22:29:06;;;;;;;24.27;3.50;;;;;;;22.55;53.09;99885.25;10378540;28;20490;-74
2022/08/27 22:34:09;;;;;;;13.98;2.85;;;;;;;22.87;53.37;99933.16;10377705;28;20046;-74
2022/08/27 22:39:10;;;;;;;21.13;2.90;;;;;;;22.98;53.35;99947.63;10378308;28;20477;-74
2022/08/27 22:44:10;;;;;;;17.48;3.70;;;;;;;22.96;53.62;99950.56;10377305;28;20041;-72
2022/08/27 22:49:11;;;;;;;17.00;3.00;;;;;;;22.72;53.72;99908.66;10377590;28;20524;-73
2022/08/27 22:54:12;;;;;;;17.80;3.00;;;;;;;23.04;53.92;99943.06;10377254;28;20107;-73
2022/08/27 22:59:13;;;;;;;17.33;2.88;;;;;;;22.68;54.21;99889.41;10377896;28;20137;-73
2022/08/27 23:04:14;;;;;;;22.10;3.28;;;;;;;22.53;54.42;99878.47;10377603;28;20507;-74
2022/08/27 23:09:14;;;;;;;16.65;3.28;;;;;;;22.90;54.75;99943.47;10376790;28;20042;-73
2022/08/27 23:14:15;;;;;;;18.13;2.97;;;;;;;22.50;54.52;99893.31;10376666;28;20044;-73
2022/08/27 23:19:17;;;;;;;16.27;3.28;;;;;;;22.74;54.71;99955.25;10376508;28;20073;-73
2022/08/27 23:24:18;;;;;;;25.90;3.17;;;;;;;22.73;54.58;99975.25;10376229;28;20172;-73
2022/08/27 23:29:21;;;;;;;23.50;3.17;;;;;;;22.50;54.58;99965.59;10376183;28;20061;-73